createdAt,value
2017-08-02T00:00:02.138Z,933.1
2017-08-02T00:00:30.447Z,933.1
2017-08-02T00:00:58.679Z,933.1
2017-08-02T00:01:26.680Z,933.11
2017-08-02T00:01:54.779Z,933.1
2017-08-02T00:02:22.893Z,933.11
2017-08-02T00:02:51.114Z,933.07
2017-08-02T00:03:19.264Z,933.08
2017-08-02T00:03:47.402Z,933.1
2017-08-02T00:04:15.407Z,933.06
2017-08-02T00:04:43.610Z,933.06
2017-08-02T00:05:11.592Z,933.09
2017-08-02T00:05:39.794Z,933.08
2017-08-02T00:06:08.023Z,933.08
2017-08-02T00:06:36.080Z,933.06
2017-08-02T00:07:04.354Z,933.09
2017-08-02T00:07:32.495Z,933.08
2017-08-02T00:08:00.788Z,933.07
2017-08-02T00:08:28.820Z,933.04
2017-08-02T00:08:57.061Z,933.05
2017-08-02T00:09:25.161Z,933.08
2017-08-02T00:09:53.338Z,933.06
2017-08-02T00:10:21.559Z,933.1
2017-08-02T00:10:49.708Z,933.06
2017-08-02T00:11:17.803Z,933.08
2017-08-02T00:11:46.017Z,933.09
2017-08-02T00:12:14.200Z,933.11
2017-08-02T00:12:42.423Z,933.09
2017-08-02T00:13:10.690Z,933.12
2017-08-02T00:13:38.875Z,933.1
2017-08-02T00:14:06.992Z,933.08
2017-08-02T00:14:35.215Z,933.08
2017-08-02T00:15:03.364Z,933.1
2017-08-02T00:15:31.494Z,933.09
2017-08-02T00:15:59.585Z,933.06
2017-08-02T00:16:27.520Z,933.08
2017-08-02T00:16:55.676Z,933.1
2017-08-02T00:17:23.820Z,933.14
2017-08-02T00:17:51.915Z,933.12
2017-08-02T00:18:20.161Z,933.09
2017-08-02T00:18:48.126Z,933.09
2017-08-02T00:19:16.156Z,933.12
2017-08-02T00:19:44.157Z,933.11
2017-08-02T00:20:12.365Z,933.14
2017-08-02T00:20:40.522Z,933.12
2017-08-02T00:21:08.721Z,933.1
2017-08-02T00:21:36.915Z,933.09
2017-08-02T00:22:05.145Z,933.08
2017-08-02T00:22:33.355Z,933.12
2017-08-02T00:23:01.678Z,933.12
2017-08-02T00:23:29.841Z,933.11
2017-08-02T00:23:57.944Z,933.11
2017-08-02T00:24:25.941Z,933.15
2017-08-02T00:24:54.111Z,933.14
2017-08-02T00:25:22.324Z,933.13
2017-08-02T00:25:50.369Z,933.13
2017-08-02T00:26:18.447Z,933.19
2017-08-02T00:26:46.505Z,933.14
2017-08-02T00:27:14.537Z,933.12
2017-08-02T00:27:42.638Z,933.14
2017-08-02T00:28:10.835Z,933.16
2017-08-02T00:28:39.028Z,933.11
2017-08-02T00:29:07.192Z,933.14
2017-08-02T00:29:35.252Z,933.14
2017-08-02T00:30:03.318Z,933.16
2017-08-02T00:30:31.421Z,933.15
2017-08-02T00:30:59.572Z,933.16
2017-08-02T00:31:27.657Z,933.17
2017-08-02T00:31:55.816Z,933.16
2017-08-02T00:32:23.719Z,933.17
2017-08-02T00:32:51.793Z,933.15
2017-08-02T00:33:19.994Z,933.15
2017-08-02T00:33:48.019Z,933.16
2017-08-02T00:34:16.143Z,933.17
2017-08-02T00:34:44.206Z,933.17
2017-08-02T00:35:12.293Z,933.14
2017-08-02T00:35:40.310Z,933.16
2017-08-02T00:36:08.388Z,933.18
2017-08-02T00:36:36.420Z,933.21
2017-08-02T00:37:04.679Z,933.19
2017-08-02T00:37:32.863Z,933.22
2017-08-02T00:38:01.065Z,933.21
2017-08-02T00:38:29.582Z,933.23
2017-08-02T00:38:57.814Z,933.21
2017-08-02T00:39:26.030Z,933.21
2017-08-02T00:39:54.206Z,933.23
2017-08-02T00:40:22.340Z,933.2
2017-08-02T00:40:50.345Z,933.22
2017-08-02T00:41:18.520Z,933.25
2017-08-02T00:41:46.520Z,933.25
2017-08-02T00:42:14.627Z,933.2
2017-08-02T00:42:42.811Z,933.2
2017-08-02T00:43:10.975Z,933.17
2017-08-02T00:43:39.089Z,933.18
2017-08-02T00:44:07.195Z,933.17
2017-08-02T00:44:35.404Z,933.15
2017-08-02T00:45:03.593Z,933.17
2017-08-02T00:45:31.676Z,933.18
2017-08-02T00:45:59.765Z,933.2
2017-08-02T00:46:27.964Z,933.21
2017-08-02T00:46:56.167Z,933.18
2017-08-02T00:47:24.265Z,933.22
2017-08-02T00:47:52.398Z,933.21
2017-08-02T00:48:20.718Z,933.23
2017-08-02T00:48:48.702Z,933.23
2017-08-02T00:49:16.952Z,933.27
2017-08-02T00:49:45.029Z,933.26
2017-08-02T00:50:13.201Z,933.26
2017-08-02T00:50:41.311Z,933.25
2017-08-02T00:51:09.320Z,933.29
2017-08-02T00:51:37.508Z,933.27
2017-08-02T00:52:05.556Z,933.25
2017-08-02T00:52:33.730Z,933.26
2017-08-02T00:53:01.917Z,933.31
2017-08-02T00:53:30.264Z,933.31
2017-08-02T00:53:58.430Z,933.33
2017-08-02T00:54:26.615Z,933.33
2017-08-02T00:54:54.731Z,933.33
2017-08-02T00:55:22.601Z,933.33
2017-08-02T00:55:50.788Z,933.33
2017-08-02T00:56:18.778Z,933.35
2017-08-02T00:56:46.965Z,933.34
2017-08-02T00:57:15.157Z,933.34
2017-08-02T00:57:43.159Z,933.34
2017-08-02T00:58:11.253Z,933.32
2017-08-02T00:58:39.522Z,933.34
2017-08-02T00:59:07.660Z,933.35
2017-08-02T00:59:35.853Z,933.32
2017-08-02T01:00:04.055Z,933.34
2017-08-02T01:00:32.226Z,933.34
2017-08-02T01:01:00.252Z,933.36
2017-08-02T01:01:28.471Z,933.34
2017-08-02T01:01:56.480Z,933.37
2017-08-02T01:02:24.501Z,933.39
2017-08-02T01:02:52.684Z,933.4
2017-08-02T01:03:20.671Z,933.38
2017-08-02T01:03:48.832Z,933.38
2017-08-02T01:04:16.931Z,933.41
2017-08-02T01:04:45.059Z,933.42
2017-08-02T01:05:13.168Z,933.41
2017-08-02T01:05:41.338Z,933.44
2017-08-02T01:06:09.575Z,933.39
2017-08-02T01:06:37.655Z,933.41
2017-08-02T01:07:05.847Z,933.43
2017-08-02T01:07:33.928Z,933.41
2017-08-02T01:08:02.051Z,933.42
2017-08-02T01:08:30.255Z,933.43
2017-08-02T01:08:58.503Z,933.42
2017-08-02T01:09:26.739Z,933.42
2017-08-02T01:09:54.936Z,933.42
2017-08-02T01:10:23.053Z,933.43
2017-08-02T01:10:51.222Z,933.44
2017-08-02T01:11:19.396Z,933.45
2017-08-02T01:11:47.532Z,933.46
2017-08-02T01:12:15.750Z,933.46
2017-08-02T01:12:43.884Z,933.45
2017-08-02T01:13:12.039Z,933.43
2017-08-02T01:13:40.266Z,933.45
2017-08-02T01:14:08.366Z,933.43
2017-08-02T01:14:36.548Z,933.45
2017-08-02T01:15:04.750Z,933.43
2017-08-02T01:15:32.913Z,933.44
2017-08-02T01:16:00.988Z,933.44
2017-08-02T01:16:29.112Z,933.44
2017-08-02T01:16:57.323Z,933.46
2017-08-02T01:17:25.519Z,933.45
2017-08-02T01:17:53.629Z,933.44
2017-08-02T01:18:21.735Z,933.46
2017-08-02T01:18:49.954Z,933.43
2017-08-02T01:19:18.146Z,933.44
2017-08-02T01:19:46.332Z,933.42
2017-08-02T01:20:14.334Z,933.48
2017-08-02T01:20:42.474Z,933.42
2017-08-02T01:21:10.681Z,933.46
2017-08-02T01:21:38.787Z,933.41
2017-08-02T01:22:06.915Z,933.42
2017-08-02T01:22:34.942Z,933.39
2017-08-02T01:23:03.064Z,933.42
2017-08-02T01:23:31.094Z,933.41
2017-08-02T01:23:59.266Z,933.42
2017-08-02T01:24:27.472Z,933.42
2017-08-02T01:24:55.393Z,933.45
2017-08-02T01:25:23.603Z,933.43
2017-08-02T01:25:51.779Z,933.48
2017-08-02T01:26:19.797Z,933.42
2017-08-02T01:26:47.898Z,933.44
2017-08-02T01:27:16.097Z,933.46
2017-08-02T01:27:44.308Z,933.47
2017-08-02T01:28:12.451Z,933.46
2017-08-02T01:28:40.624Z,933.44
2017-08-02T01:29:08.934Z,933.45
2017-08-02T01:29:37.071Z,933.42
2017-08-02T01:30:05.277Z,933.45
2017-08-02T01:30:33.467Z,933.44
2017-08-02T01:31:01.617Z,933.48
2017-08-02T01:31:29.767Z,933.47
2017-08-02T01:31:57.835Z,933.43
2017-08-02T01:32:26.017Z,933.46
2017-08-02T01:32:54.030Z,933.49
2017-08-02T01:33:22.262Z,933.49
2017-08-02T01:33:50.508Z,933.47
2017-08-02T01:34:18.714Z,933.48
2017-08-02T01:34:46.925Z,933.49
2017-08-02T01:35:15.135Z,933.45
2017-08-02T01:35:43.183Z,933.47
2017-08-02T01:36:11.271Z,933.49
2017-08-02T01:36:39.344Z,933.48
2017-08-02T01:37:07.484Z,933.48
2017-08-02T01:37:35.672Z,933.49
2017-08-02T01:38:03.870Z,933.53
2017-08-02T01:38:32.014Z,933.53
2017-08-02T01:39:00.237Z,933.55
2017-08-02T01:39:28.332Z,933.55
2017-08-02T01:39:56.433Z,933.59
2017-08-02T01:40:24.634Z,933.56
2017-08-02T01:40:52.758Z,933.58
2017-08-02T01:41:20.937Z,933.54
2017-08-02T01:41:49.041Z,933.57
2017-08-02T01:42:17.071Z,933.57
2017-08-02T01:42:45.024Z,933.58
2017-08-02T01:43:13.136Z,933.59
2017-08-02T01:43:41.248Z,933.59
2017-08-02T01:44:09.725Z,933.61
2017-08-02T01:44:37.986Z,933.62
2017-08-02T01:45:06.150Z,933.59
2017-08-02T01:45:34.231Z,933.64
2017-08-02T01:46:02.385Z,933.58
2017-08-02T01:46:30.576Z,933.59
2017-08-02T01:46:58.600Z,933.58
2017-08-02T01:47:26.742Z,933.62
2017-08-02T01:47:54.883Z,933.59
2017-08-02T01:48:22.978Z,933.61
2017-08-02T01:48:51.161Z,933.64
2017-08-02T01:49:19.427Z,933.66
2017-08-02T01:49:47.471Z,933.6
2017-08-02T01:50:15.487Z,933.61
2017-08-02T01:50:43.644Z,933.62
2017-08-02T01:51:11.649Z,933.61
2017-08-02T01:51:39.765Z,933.59
2017-08-02T01:52:07.918Z,933.64
2017-08-02T01:52:36.025Z,933.61
2017-08-02T01:53:04.154Z,933.61
2017-08-02T01:53:32.171Z,933.64
2017-08-02T01:54:00.346Z,933.63
2017-08-02T01:54:28.406Z,933.64
2017-08-02T01:54:56.480Z,933.63
2017-08-02T01:55:24.732Z,933.63
2017-08-02T01:55:52.956Z,933.68
2017-08-02T01:56:21.180Z,933.66
2017-08-02T01:56:49.367Z,933.66
2017-08-02T01:57:17.559Z,933.64
2017-08-02T01:57:45.573Z,933.65
2017-08-02T01:58:13.668Z,933.7
2017-08-02T01:58:41.849Z,933.71
2017-08-02T01:59:41.643Z,933.69
2017-08-02T02:00:09.760Z,933.68
2017-08-02T02:00:37.956Z,933.69
2017-08-02T02:01:06.132Z,933.7
2017-08-02T02:01:34.219Z,933.67
2017-08-02T02:02:02.375Z,933.69
2017-08-02T02:02:30.564Z,933.7
2017-08-02T02:02:58.831Z,933.68
2017-08-02T02:03:26.928Z,933.66
2017-08-02T02:03:54.918Z,933.69
2017-08-02T02:04:23.072Z,933.7
2017-08-02T02:04:51.300Z,933.71
2017-08-02T02:05:19.338Z,933.69
2017-08-02T02:05:47.532Z,933.68
2017-08-02T02:06:15.702Z,933.68
2017-08-02T02:06:43.854Z,933.67
2017-08-02T02:07:11.774Z,933.74
2017-08-02T02:07:39.965Z,933.75
2017-08-02T02:08:08.121Z,933.73
2017-08-02T02:08:36.257Z,933.72
2017-08-02T02:09:04.362Z,933.7
2017-08-02T02:09:32.490Z,933.72
2017-08-02T02:10:00.728Z,933.72
2017-08-02T02:10:28.923Z,933.71
2017-08-02T02:10:57.137Z,933.71
2017-08-02T02:11:25.328Z,933.69
2017-08-02T02:11:53.399Z,933.68
2017-08-02T02:12:21.456Z,933.7
2017-08-02T02:12:49.666Z,933.67
2017-08-02T02:13:17.840Z,933.65
2017-08-02T02:13:45.975Z,933.68
2017-08-02T02:14:14.210Z,933.66
2017-08-02T02:14:42.447Z,933.69
2017-08-02T02:15:10.596Z,933.69
2017-08-02T02:15:38.774Z,933.69
2017-08-02T02:16:06.917Z,933.72
2017-08-02T02:16:34.985Z,933.7
2017-08-02T02:17:03.126Z,933.7
2017-08-02T02:17:31.305Z,933.71
2017-08-02T02:17:59.380Z,933.69
2017-08-02T02:18:27.371Z,933.69
2017-08-02T02:18:55.528Z,933.66
2017-08-02T02:19:23.747Z,933.66
2017-08-02T02:19:52.051Z,933.68
2017-08-02T02:20:20.151Z,933.71
2017-08-02T02:20:48.185Z,933.67
2017-08-02T02:21:16.187Z,933.69
2017-08-02T02:21:44.426Z,933.69
2017-08-02T02:22:12.309Z,933.68
2017-08-02T02:22:40.547Z,933.69
2017-08-02T02:23:08.660Z,933.7
2017-08-02T02:23:36.863Z,933.69
2017-08-02T02:24:05.103Z,933.67
2017-08-02T02:24:33.351Z,933.71
2017-08-02T02:25:01.602Z,933.7
2017-08-02T02:25:29.702Z,933.74
2017-08-02T02:25:57.776Z,933.75
2017-08-02T02:26:25.835Z,933.73
2017-08-02T02:26:53.979Z,933.71
2017-08-02T02:27:21.906Z,933.71
2017-08-02T02:27:50.094Z,933.71
2017-08-02T02:28:18.134Z,933.73
2017-08-02T02:28:46.307Z,933.72
2017-08-02T02:29:14.439Z,933.72
2017-08-02T02:29:42.518Z,933.7
2017-08-02T02:30:10.806Z,933.69
2017-08-02T02:30:38.992Z,933.69
2017-08-02T02:31:07.010Z,933.69
2017-08-02T02:31:35.130Z,933.68
2017-08-02T02:32:03.294Z,933.66
2017-08-02T02:32:31.227Z,933.66
2017-08-02T02:32:59.262Z,933.7
2017-08-02T02:33:27.326Z,933.7
2017-08-02T02:33:55.434Z,933.71
2017-08-02T02:34:23.459Z,933.71
2017-08-02T02:34:51.642Z,933.68
2017-08-02T02:35:19.727Z,933.68
2017-08-02T02:35:47.925Z,933.68
2017-08-02T02:36:16.128Z,933.67
2017-08-02T02:36:44.212Z,933.64
2017-08-02T02:37:12.420Z,933.61
2017-08-02T02:37:40.591Z,933.6
2017-08-02T02:38:08.715Z,933.62
2017-08-02T02:38:36.853Z,933.61
2017-08-02T02:39:04.947Z,933.58
2017-08-02T02:39:32.993Z,933.57
2017-08-02T02:40:01.316Z,933.6
2017-08-02T02:40:29.534Z,933.54
2017-08-02T02:40:57.700Z,933.56
2017-08-02T02:41:25.864Z,933.57
2017-08-02T02:41:54.061Z,933.56
2017-08-02T02:42:22.193Z,933.54
2017-08-02T02:42:50.217Z,933.54
2017-08-02T02:43:18.334Z,933.57
2017-08-02T02:43:46.513Z,933.55
2017-08-02T02:44:14.655Z,933.54
2017-08-02T02:44:42.827Z,933.53
2017-08-02T02:45:11.095Z,933.48
2017-08-02T02:45:39.279Z,933.46
2017-08-02T02:46:07.258Z,933.49
2017-08-02T02:46:35.456Z,933.45
2017-08-02T02:47:03.652Z,933.45
2017-08-02T02:47:31.817Z,933.42
2017-08-02T02:48:00.034Z,933.43
2017-08-02T02:48:28.148Z,933.45
2017-08-02T02:48:56.266Z,933.48
2017-08-02T02:49:24.390Z,933.47
2017-08-02T02:49:52.604Z,933.51
2017-08-02T02:50:20.723Z,933.46
2017-08-02T02:50:48.783Z,933.45
2017-08-02T02:51:16.962Z,933.46
2017-08-02T02:51:45.042Z,933.46
2017-08-02T02:52:13.235Z,933.48
2017-08-02T02:52:41.250Z,933.45
2017-08-02T02:53:09.450Z,933.44
2017-08-02T02:53:37.533Z,933.41
2017-08-02T02:54:05.728Z,933.42
2017-08-02T02:54:33.927Z,933.42
2017-08-02T02:55:02.162Z,933.42
2017-08-02T02:55:30.476Z,933.43
2017-08-02T02:55:58.711Z,933.41
2017-08-02T02:56:26.788Z,933.42
2017-08-02T02:56:54.957Z,933.39
2017-08-02T02:57:22.758Z,933.39
2017-08-02T02:57:50.862Z,933.4
2017-08-02T02:58:18.932Z,933.35
2017-08-02T02:58:47.078Z,933.35
2017-08-02T02:59:15.225Z,933.33
2017-08-02T02:59:43.447Z,933.32
2017-08-02T03:00:11.717Z,933.31
2017-08-02T03:00:39.942Z,933.28
2017-08-02T03:01:08.027Z,933.3
2017-08-02T03:01:36.154Z,933.26
2017-08-02T03:02:04.239Z,933.26
2017-08-02T03:02:32.218Z,933.28
2017-08-02T03:03:00.323Z,933.26
2017-08-02T03:03:28.555Z,933.25
2017-08-02T03:03:56.607Z,933.27
2017-08-02T03:04:24.683Z,933.3
2017-08-02T03:04:52.898Z,933.28
2017-08-02T03:05:21.184Z,933.27
2017-08-02T03:05:49.407Z,933.28
2017-08-02T03:06:17.565Z,933.21
2017-08-02T03:06:45.756Z,933.22
2017-08-02T03:07:13.882Z,933.2
2017-08-02T03:07:42.077Z,933.19
2017-08-02T03:08:10.179Z,933.17
2017-08-02T03:08:38.387Z,933.16
2017-08-02T03:09:06.609Z,933.17
2017-08-02T03:09:34.672Z,933.18
2017-08-02T03:10:02.688Z,933.19
2017-08-02T03:10:30.729Z,933.19
2017-08-02T03:10:58.837Z,933.21
2017-08-02T03:11:26.912Z,933.22
2017-08-02T03:11:54.926Z,933.21
2017-08-02T03:12:23.097Z,933.23
2017-08-02T03:12:51.174Z,933.26
2017-08-02T03:13:19.280Z,933.26
2017-08-02T03:13:47.513Z,933.23
2017-08-02T03:14:15.608Z,933.27
2017-08-02T03:14:43.797Z,933.26
2017-08-02T03:15:12.000Z,933.24
2017-08-02T03:15:40.078Z,933.23
2017-08-02T03:16:08.329Z,933.22
2017-08-02T03:16:36.417Z,933.18
2017-08-02T03:17:04.544Z,933.17
2017-08-02T03:17:32.705Z,933.17
2017-08-02T03:18:00.820Z,933.19
2017-08-02T03:18:28.995Z,933.18
2017-08-02T03:18:57.128Z,933.18
2017-08-02T03:19:25.157Z,933.12
2017-08-02T03:19:53.373Z,933.13
2017-08-02T03:20:21.466Z,933.14
2017-08-02T03:20:49.696Z,933.14
2017-08-02T03:21:17.864Z,933.17
2017-08-02T03:21:46.070Z,933.21
2017-08-02T03:22:14.320Z,933.2
2017-08-02T03:22:42.519Z,933.18
2017-08-02T03:23:10.709Z,933.19
2017-08-02T03:23:38.901Z,933.2
2017-08-02T03:24:07.083Z,933.21
2017-08-02T03:24:35.126Z,933.23
2017-08-02T03:25:03.210Z,933.23
2017-08-02T03:25:31.469Z,933.2
2017-08-02T03:25:59.665Z,933.2
2017-08-02T03:26:27.796Z,933.18
2017-08-02T03:26:55.993Z,933.16
2017-08-02T03:27:24.082Z,933.16
2017-08-02T03:27:52.290Z,933.18
2017-08-02T03:28:20.423Z,933.17
2017-08-02T03:28:48.617Z,933.17
2017-08-02T03:29:16.790Z,933.19
2017-08-02T03:29:44.711Z,933.17
2017-08-02T03:30:12.728Z,933.18
2017-08-02T03:30:41.026Z,933.17
2017-08-02T03:31:09.132Z,933.17
2017-08-02T03:31:37.362Z,933.16
2017-08-02T03:32:05.504Z,933.16
2017-08-02T03:32:33.541Z,933.18
2017-08-02T03:33:01.659Z,933.2
2017-08-02T03:33:29.756Z,933.23
2017-08-02T03:33:57.930Z,933.23
2017-08-02T03:34:26.066Z,933.28
2017-08-02T03:34:54.205Z,933.24
2017-08-02T03:35:22.273Z,933.28
2017-08-02T03:35:50.563Z,933.27
2017-08-02T03:36:18.733Z,933.31
2017-08-02T03:36:46.928Z,933.3
2017-08-02T03:37:15.044Z,933.32
2017-08-02T03:37:43.260Z,933.32
2017-08-02T03:38:11.395Z,933.32
2017-08-02T03:38:39.515Z,933.33
2017-08-02T03:39:07.690Z,933.32
2017-08-02T03:39:35.893Z,933.32
2017-08-02T03:40:04.025Z,933.32
2017-08-02T03:40:32.206Z,933.31
2017-08-02T03:41:00.410Z,933.31
2017-08-02T03:41:28.530Z,933.28
2017-08-02T03:41:56.645Z,933.28
2017-08-02T03:42:24.810Z,933.3
2017-08-02T03:42:52.998Z,933.31
2017-08-02T03:43:21.195Z,933.31
2017-08-02T03:43:49.213Z,933.3
2017-08-02T03:44:17.391Z,933.28
2017-08-02T03:44:45.601Z,933.26
2017-08-02T03:45:13.820Z,933.26
2017-08-02T03:45:42.010Z,933.29
2017-08-02T03:46:10.119Z,933.28
2017-08-02T03:46:38.195Z,933.26
2017-08-02T03:47:06.299Z,933.25
2017-08-02T03:47:34.382Z,933.28
2017-08-02T03:48:02.579Z,933.31
2017-08-02T03:48:30.626Z,933.3
2017-08-02T03:48:58.827Z,933.28
2017-08-02T03:49:27.036Z,933.3
2017-08-02T03:49:55.281Z,933.33
2017-08-02T03:50:23.404Z,933.31
2017-08-02T03:50:51.512Z,933.33
2017-08-02T03:51:19.720Z,933.34
2017-08-02T03:51:47.926Z,933.33
2017-08-02T03:52:15.927Z,933.33
2017-08-02T03:52:44.061Z,933.31
2017-08-02T03:53:12.314Z,933.28
2017-08-02T03:53:40.525Z,933.29
2017-08-02T03:54:08.701Z,933.29
2017-08-02T03:54:36.822Z,933.29
2017-08-02T03:55:04.949Z,933.27
2017-08-02T03:55:33.111Z,933.29
2017-08-02T03:56:01.261Z,933.29
2017-08-02T03:56:29.490Z,933.26
2017-08-02T03:56:57.612Z,933.27
2017-08-02T03:57:25.868Z,933.26
2017-08-02T03:57:53.973Z,933.26
2017-08-02T03:58:22.192Z,933.31
2017-08-02T03:58:50.268Z,933.27
2017-08-02T03:59:18.390Z,933.28
2017-08-02T03:59:46.547Z,933.31
2017-08-02T04:00:14.743Z,933.29
2017-08-02T04:00:42.987Z,933.29
2017-08-02T04:01:11.322Z,933.3
2017-08-02T04:01:39.212Z,933.31
2017-08-02T04:02:07.419Z,933.29
2017-08-02T04:02:35.509Z,933.34
2017-08-02T04:03:03.584Z,933.32
2017-08-02T04:03:31.764Z,933.32
2017-08-02T04:03:59.882Z,933.34
2017-08-02T04:04:27.966Z,933.34
2017-08-02T04:04:56.229Z,933.35
2017-08-02T04:05:24.348Z,933.34
2017-08-02T04:05:52.642Z,933.35
2017-08-02T04:06:20.734Z,933.35
2017-08-02T04:06:48.830Z,933.33
2017-08-02T04:07:16.923Z,933.33
2017-08-02T04:07:45.131Z,933.29
2017-08-02T04:08:13.357Z,933.3
2017-08-02T04:08:41.573Z,933.29
2017-08-02T04:09:09.554Z,933.29
2017-08-02T04:09:37.756Z,933.29
2017-08-02T04:10:05.864Z,933.28
2017-08-02T04:10:33.876Z,933.29
2017-08-02T04:11:02.170Z,933.24
2017-08-02T04:11:30.284Z,933.28
2017-08-02T04:11:58.306Z,933.27
2017-08-02T04:12:26.474Z,933.31
2017-08-02T04:12:54.625Z,933.3
2017-08-02T04:13:22.714Z,933.33
2017-08-02T04:13:50.842Z,933.33
2017-08-02T04:14:18.779Z,933.33
2017-08-02T04:14:46.950Z,933.32
2017-08-02T04:15:15.143Z,933.34
2017-08-02T04:15:43.280Z,933.34
2017-08-02T04:16:11.629Z,933.28
2017-08-02T04:16:39.608Z,933.29
2017-08-02T04:17:07.728Z,933.28
2017-08-02T04:17:35.961Z,933.28
2017-08-02T04:18:04.060Z,933.29
2017-08-02T04:18:32.173Z,933.29
2017-08-02T04:19:00.310Z,933.31
2017-08-02T04:19:28.426Z,933.3
2017-08-02T04:19:56.536Z,933.29
2017-08-02T04:20:24.631Z,933.32
2017-08-02T04:20:52.778Z,933.31
2017-08-02T04:21:20.933Z,933.29
2017-08-02T04:21:49.115Z,933.28
2017-08-02T04:22:17.096Z,933.29
2017-08-02T04:22:45.313Z,933.3
2017-08-02T04:23:13.430Z,933.3
2017-08-02T04:23:41.558Z,933.3
2017-08-02T04:24:09.740Z,933.28
2017-08-02T04:24:37.745Z,933.26
2017-08-02T04:25:05.954Z,933.28
2017-08-02T04:25:34.010Z,933.27
2017-08-02T04:26:02.029Z,933.24
2017-08-02T04:26:30.354Z,933.28
2017-08-02T04:26:58.402Z,933.28
2017-08-02T04:27:26.520Z,933.26
2017-08-02T04:27:54.530Z,933.27
2017-08-02T04:28:22.515Z,933.25
2017-08-02T04:28:50.694Z,933.23
2017-08-02T04:29:18.816Z,933.24
2017-08-02T04:29:46.931Z,933.23
2017-08-02T04:30:15.053Z,933.25
2017-08-02T04:30:43.227Z,933.25
2017-08-02T04:31:11.395Z,933.26
2017-08-02T04:31:39.620Z,933.29
2017-08-02T04:32:07.818Z,933.27
2017-08-02T04:32:35.934Z,933.24
2017-08-02T04:33:04.177Z,933.28
2017-08-02T04:33:32.284Z,933.26
2017-08-02T04:34:00.484Z,933.26
2017-08-02T04:34:28.549Z,933.3
2017-08-02T04:34:56.758Z,933.25
2017-08-02T04:35:24.939Z,933.26
2017-08-02T04:35:53.159Z,933.3
2017-08-02T04:36:21.421Z,933.26
2017-08-02T04:36:49.487Z,933.27
2017-08-02T04:37:17.637Z,933.26
2017-08-02T04:37:45.759Z,933.28
2017-08-02T04:38:13.871Z,933.24
2017-08-02T04:38:41.784Z,933.26
2017-08-02T04:39:10.013Z,933.26
2017-08-02T04:39:38.060Z,933.26
2017-08-02T04:40:06.252Z,933.24
2017-08-02T04:40:34.335Z,933.26
2017-08-02T04:41:02.433Z,933.22
2017-08-02T04:41:30.664Z,933.24
2017-08-02T04:41:58.815Z,933.26
2017-08-02T04:42:27.055Z,933.25
2017-08-02T04:42:54.969Z,933.26
2017-08-02T04:43:22.979Z,933.27
2017-08-02T04:43:51.174Z,933.3
2017-08-02T04:44:19.395Z,933.3
2017-08-02T04:44:47.600Z,933.31
2017-08-02T04:45:15.552Z,933.3
2017-08-02T04:45:43.652Z,933.3
2017-08-02T04:46:11.767Z,933.28
2017-08-02T04:46:40.111Z,933.29
2017-08-02T04:47:08.132Z,933.33
2017-08-02T04:47:36.231Z,933.31
2017-08-02T04:48:04.393Z,933.28
2017-08-02T04:48:32.589Z,933.28
2017-08-02T04:49:00.768Z,933.28
2017-08-02T04:49:28.973Z,933.29
2017-08-02T04:49:57.137Z,933.29
2017-08-02T04:50:25.233Z,933.26
2017-08-02T04:50:53.465Z,933.23
2017-08-02T04:51:21.680Z,933.24
2017-08-02T04:51:49.882Z,933.21
2017-08-02T04:52:18.096Z,933.19
2017-08-02T04:52:46.107Z,933.23
2017-08-02T04:53:14.330Z,933.22
2017-08-02T04:53:42.445Z,933.24
2017-08-02T04:54:10.548Z,933.21
2017-08-02T04:54:38.534Z,933.21
2017-08-02T04:55:06.605Z,933.23
2017-08-02T04:55:34.658Z,933.21
2017-08-02T04:56:02.809Z,933.2
2017-08-02T04:56:31.016Z,933.21
2017-08-02T04:56:59.153Z,933.2
2017-08-02T04:57:27.376Z,933.23
2017-08-02T04:57:55.517Z,933.21
2017-08-02T04:58:23.514Z,933.2
2017-08-02T04:58:51.649Z,933.2
2017-08-02T04:59:19.769Z,933.17
2017-08-02T04:59:47.748Z,933.18
2017-08-02T05:00:15.891Z,933.19
2017-08-02T05:00:43.984Z,933.18
2017-08-02T05:01:12.074Z,933.15
2017-08-02T05:01:40.285Z,933.2
2017-08-02T05:02:08.525Z,933.17
2017-08-02T05:02:36.691Z,933.19
2017-08-02T05:03:04.810Z,933.17
2017-08-02T05:03:32.996Z,933.17
2017-08-02T05:04:01.060Z,933.17
2017-08-02T05:04:29.153Z,933.18
2017-08-02T05:04:57.290Z,933.2
2017-08-02T05:05:25.316Z,933.19
2017-08-02T05:05:53.530Z,933.18
2017-08-02T05:06:21.679Z,933.18
2017-08-02T05:06:49.932Z,933.19
2017-08-02T05:07:18.117Z,933.22
2017-08-02T05:07:46.049Z,933.23
2017-08-02T05:08:14.055Z,933.2
2017-08-02T05:08:42.213Z,933.17
2017-08-02T05:09:10.386Z,933.18
2017-08-02T05:09:38.493Z,933.24
2017-08-02T05:10:06.606Z,933.22
2017-08-02T05:10:34.634Z,933.24
2017-08-02T05:11:02.839Z,933.23
2017-08-02T05:11:30.966Z,933.21
2017-08-02T05:11:59.075Z,933.27
2017-08-02T05:12:27.179Z,933.22
2017-08-02T05:12:55.315Z,933.2
2017-08-02T05:13:23.323Z,933.22
2017-08-02T05:13:51.225Z,933.23
2017-08-02T05:14:19.377Z,933.23
2017-08-02T05:14:47.572Z,933.23
2017-08-02T05:15:15.716Z,933.23
2017-08-02T05:15:43.908Z,933.2
2017-08-02T05:16:11.991Z,933.26
2017-08-02T05:16:40.178Z,933.26
2017-08-02T05:17:08.401Z,933.26
2017-08-02T05:17:36.423Z,933.23
2017-08-02T05:18:04.494Z,933.24
2017-08-02T05:18:32.758Z,933.27
2017-08-02T05:19:00.917Z,933.29
2017-08-02T05:19:29.131Z,933.28
2017-08-02T05:19:57.348Z,933.27
2017-08-02T05:20:25.500Z,933.25
2017-08-02T05:20:53.600Z,933.28
2017-08-02T05:21:21.793Z,933.28
2017-08-02T05:21:50.046Z,933.24
2017-08-02T05:22:18.139Z,933.25
2017-08-02T05:22:46.246Z,933.24
2017-08-02T05:23:14.352Z,933.23
2017-08-02T05:23:42.332Z,933.23
2017-08-02T05:24:10.415Z,933.28
2017-08-02T05:24:38.627Z,933.25
2017-08-02T05:25:06.810Z,933.3
2017-08-02T05:25:34.825Z,933.28
2017-08-02T05:26:02.920Z,933.28
2017-08-02T05:26:31.094Z,933.26
2017-08-02T05:26:59.193Z,933.26
2017-08-02T05:27:27.177Z,933.21
2017-08-02T05:27:55.395Z,933.24
2017-08-02T05:28:23.396Z,933.21
2017-08-02T05:28:51.382Z,933.23
2017-08-02T05:29:19.566Z,933.21
2017-08-02T05:29:47.675Z,933.22
2017-08-02T05:30:15.839Z,933.24
2017-08-02T05:30:43.953Z,933.24
2017-08-02T05:31:12.083Z,933.25
2017-08-02T05:31:40.083Z,933.23
2017-08-02T05:32:08.405Z,933.23
2017-08-02T05:32:36.498Z,933.21
2017-08-02T05:33:04.587Z,933.24
2017-08-02T05:33:32.630Z,933.2
2017-08-02T05:34:00.853Z,933.22
2017-08-02T05:34:28.853Z,933.25
2017-08-02T05:34:56.947Z,933.25
2017-08-02T05:35:25.029Z,933.29
2017-08-02T05:35:53.166Z,933.3
2017-08-02T05:36:21.222Z,933.36
2017-08-02T05:36:49.256Z,933.33
2017-08-02T05:37:17.506Z,933.34
2017-08-02T05:37:45.633Z,933.31
2017-08-02T05:38:13.832Z,933.32
2017-08-02T05:38:42.047Z,933.3
2017-08-02T05:39:10.226Z,933.31
2017-08-02T05:39:38.361Z,933.27
2017-08-02T05:40:06.534Z,933.28
2017-08-02T05:40:34.636Z,933.27
2017-08-02T05:41:02.830Z,933.26
2017-08-02T05:41:31.012Z,933.3
2017-08-02T05:41:59.182Z,933.28
2017-08-02T05:42:27.547Z,933.27
2017-08-02T05:42:55.672Z,933.3
2017-08-02T05:43:23.859Z,933.29
2017-08-02T05:43:52.103Z,933.27
2017-08-02T05:44:20.249Z,933.3
2017-08-02T05:44:48.518Z,933.28
2017-08-02T05:45:16.764Z,933.31
2017-08-02T05:45:45.005Z,933.29
2017-08-02T05:46:13.041Z,933.29
2017-08-02T05:46:40.962Z,933.28
2017-08-02T05:47:09.235Z,933.28
2017-08-02T05:47:37.244Z,933.25
2017-08-02T05:48:05.456Z,933.25
2017-08-02T05:48:33.430Z,933.3
2017-08-02T05:49:01.673Z,933.29
2017-08-02T05:49:29.904Z,933.26
2017-08-02T05:49:58.116Z,933.21
2017-08-02T05:50:26.353Z,933.26
2017-08-02T05:50:54.458Z,933.25
2017-08-02T05:51:22.700Z,933.23
2017-08-02T05:51:50.947Z,933.22
2017-08-02T05:52:19.124Z,933.23